createdAt,value
2023-03-16T00:00:22.670Z,6.37
2023-03-16T00:02:50.481Z,5.70
2023-03-16T00:05:18.445Z,5.43
2023-03-16T00:07:46.197Z,6.60
2023-03-16T00:10:15.011Z,7.70
2023-03-16T00:12:43.939Z,5.70
2023-03-16T00:15:13.262Z,5.50
2023-03-16T00:17:41.484Z,5.00
2023-03-16T00:20:11.212Z,4.80
2023-03-16T00:22:39.069Z,5.73
2023-03-16T00:25:09.216Z,5.27
2023-03-16T00:27:36.926Z,4.10
2023-03-16T00:30:06.498Z,4.53
2023-03-16T00:32:37.854Z,5.10
2023-03-16T00:35:09.498Z,5.03
2023-03-16T00:37:39.775Z,4.27
2023-03-16T00:40:10.330Z,4.40
2023-03-16T00:42:38.251Z,4.50
2023-03-16T00:45:07.861Z,4.50
2023-03-16T00:47:38.810Z,4.00
2023-03-16T00:50:07.995Z,3.80
2023-03-16T00:52:36.002Z,4.23
2023-03-16T00:55:04.932Z,3.90
2023-03-16T00:57:32.796Z,4.10
2023-03-16T01:00:05.394Z,3.50
2023-03-16T01:02:33.383Z,3.70
2023-03-16T01:05:05.814Z,4.00
2023-03-16T01:07:36.266Z,3.53
2023-03-16T01:10:06.248Z,3.63
2023-03-16T01:12:34.189Z,2.97
2023-03-16T01:15:02.591Z,3.60
2023-03-16T01:17:35.014Z,3.30
2023-03-16T01:20:08.405Z,3.40
2023-03-16T01:22:36.371Z,3.87
2023-03-16T01:25:05.881Z,3.50
2023-03-16T01:27:33.746Z,3.43
2023-03-16T01:30:02.464Z,3.33
2023-03-16T01:32:30.821Z,3.70
2023-03-16T01:34:58.613Z,3.80
2023-03-16T01:37:26.381Z,3.90
2023-03-16T01:40:00.182Z,3.00
2023-03-16T01:42:28.015Z,2.80
2023-03-16T01:45:05.823Z,4.00
2023-03-16T01:47:40.067Z,3.50
2023-03-16T01:50:13.951Z,2.97
2023-03-16T01:52:43.358Z,3.23
2023-03-16T01:55:13.776Z,3.10
2023-03-16T01:57:47.727Z,3.57
2023-03-16T02:00:23.866Z,4.33
2023-03-16T02:03:16.897Z,3.03
2023-03-16T02:06:23.151Z,3.93
2023-03-16T02:08:58.141Z,3.63
2023-03-16T02:11:27.338Z,4.10
2023-03-16T02:14:14.334Z,3.60
2023-03-16T02:16:43.822Z,3.00
2023-03-16T02:19:47.691Z,3.03
2023-03-16T02:22:17.639Z,3.20
2023-03-16T02:24:46.511Z,3.00
2023-03-16T02:28:08.930Z,3.30
2023-03-16T02:30:41.931Z,3.40
2023-03-16T02:33:12.075Z,3.43
2023-03-16T02:35:40.156Z,2.70
2023-03-16T02:38:08.628Z,2.97
2023-03-16T02:40:44.094Z,3.50
2023-03-16T02:43:33.634Z,2.40
2023-03-16T02:46:14.071Z,3.83
2023-03-16T02:48:58.088Z,3.10
2023-03-16T02:51:25.859Z,3.47
2023-03-16T02:53:56.114Z,2.43
2023-03-16T02:56:25.963Z,2.60
2023-03-16T02:58:53.973Z,2.97
2023-03-16T03:01:22.079Z,2.90
2023-03-16T03:03:50.170Z,3.30
2023-03-16T03:06:17.935Z,3.33
2023-03-16T03:08:46.399Z,3.70
2023-03-16T03:11:14.779Z,3.33
2023-03-16T03:13:44.732Z,3.47
2023-03-16T03:16:17.871Z,3.50
2023-03-16T03:18:45.781Z,2.60
2023-03-16T03:21:14.240Z,2.60
2023-03-16T03:23:42.164Z,3.30
2023-03-16T03:26:09.980Z,2.70
2023-03-16T03:28:38.944Z,3.13
2023-03-16T03:31:06.930Z,3.10
2023-03-16T03:33:34.781Z,2.70
2023-03-16T03:36:04.025Z,2.53
2023-03-16T03:38:36.688Z,3.43
2023-03-16T03:41:10.067Z,3.40
2023-03-16T03:43:39.738Z,3.73
2023-03-16T03:46:12.409Z,3.00
2023-03-16T03:48:40.239Z,3.30
2023-03-16T03:51:08.031Z,3.07
2023-03-16T03:53:47.444Z,3.33
2023-03-16T03:56:22.905Z,3.00
2023-03-16T03:58:50.961Z,3.30
2023-03-16T04:01:38.915Z,2.93
2023-03-16T04:04:06.634Z,2.87
2023-03-16T04:06:34.794Z,3.30
2023-03-16T04:09:02.671Z,3.27
2023-03-16T04:11:30.868Z,3.40
2023-03-16T04:13:58.759Z,2.80
2023-03-16T04:16:29.498Z,3.03
2023-03-16T04:18:58.550Z,2.87
2023-03-16T04:21:27.882Z,3.10
2023-03-16T04:23:55.582Z,2.53
2023-03-16T04:26:34.924Z,3.40
2023-03-16T04:29:04.719Z,3.37
2023-03-16T04:31:33.923Z,3.07
2023-03-16T04:34:02.548Z,2.83
2023-03-16T04:36:30.648Z,2.40
2023-03-16T04:38:58.353Z,2.70
2023-03-16T04:41:26.750Z,2.93
2023-03-16T04:44:02.980Z,3.17
2023-03-16T04:46:30.774Z,2.30
2023-03-16T04:49:02.689Z,2.70
2023-03-16T04:51:31.408Z,3.23
2023-03-16T04:54:05.623Z,2.53
2023-03-16T04:56:36.630Z,3.30
2023-03-16T04:59:09.833Z,2.70
2023-03-16T05:01:46.900Z,3.07
2023-03-16T05:04:19.555Z,2.70
2023-03-16T05:06:48.978Z,2.40
2023-03-16T05:09:18.269Z,2.77
2023-03-16T05:11:46.268Z,2.47
2023-03-16T05:14:14.530Z,3.00
2023-03-16T05:17:03.999Z,2.57
2023-03-16T05:19:33.084Z,3.40
2023-03-16T05:22:01.293Z,3.50
2023-03-16T05:24:29.142Z,2.70
2023-03-16T05:26:57.769Z,2.70
2023-03-16T05:29:26.928Z,3.00
2023-03-16T05:31:54.866Z,3.00
2023-03-16T05:34:26.572Z,3.00
2023-03-16T05:36:54.329Z,3.87
2023-03-16T05:39:23.685Z,2.90
2023-03-16T05:41:51.788Z,2.83
2023-03-16T05:44:30.446Z,3.30
2023-03-16T05:47:21.683Z,3.53
2023-03-16T05:49:55.223Z,3.37
2023-03-16T05:52:36.895Z,3.63
2023-03-16T05:55:15.214Z,3.50
2023-03-16T05:57:45.669Z,3.80
2023-03-16T06:00:16.880Z,4.20
2023-03-16T06:02:53.013Z,3.73
2023-03-16T06:05:24.555Z,3.83
2023-03-16T06:07:53.636Z,4.50
2023-03-16T06:10:22.476Z,4.20
2023-03-16T06:12:50.502Z,4.03
2023-03-16T06:15:25.108Z,3.73
2023-03-16T06:17:54.148Z,4.17
2023-03-16T06:20:22.719Z,4.20
2023-03-16T06:22:51.095Z,4.37
2023-03-16T06:25:19.218Z,4.40
2023-03-16T06:27:49.952Z,4.10
2023-03-16T06:30:19.185Z,4.40
2023-03-16T06:32:47.033Z,4.13
2023-03-16T06:35:16.263Z,5.07
2023-03-16T06:37:51.703Z,4.53
2023-03-16T06:40:55.365Z,3.57
2023-03-16T06:43:24.814Z,3.73
2023-03-16T06:45:53.575Z,4.30
2023-03-16T06:48:22.980Z,3.73
2023-03-16T06:50:51.553Z,4.10
2023-03-16T06:53:26.720Z,3.30
2023-03-16T06:55:56.482Z,4.73
2023-03-16T06:58:25.393Z,4.30
2023-03-16T07:00:54.138Z,3.60
2023-03-16T07:03:22.518Z,3.70
2023-03-16T07:05:56.860Z,3.70
2023-03-16T07:08:24.674Z,3.60
2023-03-16T07:10:53.072Z,4.20
2023-03-16T07:13:21.947Z,4.63
2023-03-16T07:15:53.885Z,3.77
2023-03-16T07:18:26.183Z,3.77
2023-03-16T07:20:55.306Z,3.40
2023-03-16T07:23:26.701Z,3.60
2023-03-16T07:26:00.981Z,3.80
2023-03-16T07:28:29.856Z,3.50
2023-03-16T07:31:04.065Z,3.70
2023-03-16T07:33:40.184Z,3.47
2023-03-16T07:36:11.781Z,3.30
2023-03-16T07:38:46.141Z,3.40
2023-03-16T07:41:14.909Z,3.10
2023-03-16T07:43:44.176Z,3.00
2023-03-16T07:46:13.968Z,3.63
2023-03-16T07:48:45.840Z,3.17
2023-03-16T07:51:15.224Z,3.27
2023-03-16T07:53:47.326Z,2.87
2023-03-16T07:56:21.566Z,2.73
2023-03-16T07:58:53.637Z,3.03
2023-03-16T08:01:22.617Z,3.30
2023-03-16T08:03:50.873Z,2.77
2023-03-16T08:06:18.803Z,2.93
2023-03-16T08:08:47.882Z,2.50
2023-03-16T08:11:27.101Z,3.17
2023-03-16T08:14:02.268Z,2.83
2023-03-16T08:16:49.920Z,2.70
2023-03-16T08:19:20.444Z,3.20
2023-03-16T08:22:01.074Z,2.90
2023-03-16T08:24:34.754Z,2.97
2023-03-16T08:27:07.165Z,3.17
2023-03-16T08:29:37.912Z,2.80
2023-03-16T08:32:08.511Z,3.20
2023-03-16T08:34:42.463Z,2.37
2023-03-16T08:37:11.822Z,3.30
2023-03-16T08:39:42.297Z,2.90
2023-03-16T08:42:15.380Z,3.53
2023-03-16T08:44:51.123Z,2.87
2023-03-16T08:47:19.512Z,3.03
2023-03-16T08:49:47.512Z,2.93
2023-03-16T08:52:17.432Z,3.20
2023-03-16T08:55:01.427Z,3.43
2023-03-16T08:57:29.997Z,3.47
2023-03-16T08:59:57.705Z,3.57
2023-03-16T09:02:26.126Z,3.63
2023-03-16T09:04:54.124Z,3.30
2023-03-16T09:07:22.108Z,3.47
2023-03-16T09:09:49.828Z,3.60
2023-03-16T09:12:17.628Z,3.70
2023-03-16T09:14:49.195Z,3.10
2023-03-16T09:17:17.108Z,4.20
2023-03-16T09:19:54.411Z,3.47
2023-03-16T09:22:24.882Z,3.17
2023-03-16T09:24:52.803Z,3.60
2023-03-16T09:27:22.743Z,3.63
2023-03-16T09:29:51.065Z,3.43
2023-03-16T09:32:19.352Z,3.23
2023-03-16T09:34:47.392Z,4.17
2023-03-16T09:37:16.580Z,3.70
2023-03-16T09:39:45.849Z,3.90
2023-03-16T09:42:41.983Z,3.87
2023-03-16T09:45:38.895Z,3.80
2023-03-16T09:48:10.970Z,3.20
2023-03-16T09:50:48.823Z,3.90
2023-03-16T09:53:27.654Z,4.20
2023-03-16T09:56:58.418Z,3.70
2023-03-16T10:00:49.695Z,3.27
2023-03-16T10:04:40.832Z,3.80
2023-03-16T10:08:02.128Z,4.03
2023-03-16T10:11:29.071Z,3.57
2023-03-16T10:15:15.627Z,3.70
2023-03-16T10:18:21.169Z,3.17
2023-03-16T10:20:53.168Z,4.23
2023-03-16T10:23:25.261Z,3.57
2023-03-16T10:25:58.547Z,3.90
2023-03-16T10:28:37.777Z,3.73
2023-03-16T10:31:06.190Z,3.73
2023-03-16T10:33:39.760Z,3.13
2023-03-16T10:36:33.741Z,4.00
2023-03-16T10:39:12.343Z,3.00
2023-03-16T10:41:56.319Z,4.00
2023-03-16T10:44:30.207Z,3.30
2023-03-16T10:47:08.402Z,3.97
2023-03-16T10:49:48.882Z,3.47
2023-03-16T10:52:45.266Z,4.63
2023-03-16T10:55:32.758Z,4.10
2023-03-16T10:58:01.523Z,4.87
2023-03-16T11:00:42.046Z,4.10
2023-03-16T11:03:53.724Z,3.57
2023-03-16T11:06:33.091Z,4.00
2023-03-16T11:09:19.756Z,4.60
2023-03-16T11:11:50.945Z,6.97
2023-03-16T11:14:30.187Z,7.23
2023-03-16T11:17:12.878Z,7.17
2023-03-16T11:20:05.965Z,4.30
2023-03-16T11:22:34.365Z,3.90
2023-03-16T11:25:18.899Z,3.37
2023-03-16T11:28:29.953Z,4.00
2023-03-16T11:31:51.210Z,3.83
2023-03-16T11:34:29.463Z,3.17
2023-03-16T11:37:25.814Z,3.03
2023-03-16T11:40:51.930Z,2.80
2023-03-16T11:44:24.307Z,4.30
2023-03-16T11:47:34.230Z,3.27
2023-03-16T11:50:33.983Z,3.17
2023-03-16T11:53:46.739Z,2.60
2023-03-16T11:56:47.049Z,2.60
2023-03-16T12:00:02.998Z,2.40
2023-03-16T12:03:27.987Z,3.10
2023-03-16T12:06:29.898Z,2.70
2023-03-16T12:09:30.861Z,2.13
2023-03-16T12:12:34.861Z,2.13
2023-03-16T12:15:53.754Z,2.60
2023-03-16T12:19:01.402Z,1.83
2023-03-16T12:21:39.912Z,2.73
2023-03-16T12:24:27.355Z,1.93
2023-03-16T12:26:59.871Z,2.10
2023-03-16T12:30:24.940Z,2.23
2023-03-16T12:34:06.882Z,1.60
2023-03-16T12:37:18.840Z,2.00
2023-03-16T12:40:32.988Z,1.90
2023-03-16T12:43:34.197Z,1.90
2023-03-16T12:47:09.946Z,2.20
2023-03-16T12:49:39.094Z,2.37
2023-03-16T12:52:12.845Z,2.10
2023-03-16T12:55:19.657Z,2.03
2023-03-16T12:57:51.794Z,2.00
2023-03-16T13:00:21.704Z,2.17
2023-03-16T13:02:57.527Z,2.30
2023-03-16T13:05:58.868Z,2.10
2023-03-16T13:08:30.823Z,2.00
2023-03-16T13:11:12.287Z,2.40
2023-03-16T13:14:00.377Z,2.10
2023-03-16T13:16:38.508Z,2.10
2023-03-16T13:19:32.266Z,1.80
2023-03-16T13:22:51.330Z,3.00
2023-03-16T13:25:45.246Z,1.53
2023-03-16T13:28:17.730Z,2.23
2023-03-16T13:30:50.591Z,2.07
2023-03-16T13:33:31.441Z,2.33
2023-03-16T13:36:01.094Z,1.70
2023-03-16T13:38:30.532Z,1.93
2023-03-16T13:41:11.124Z,2.30
2023-03-16T13:43:46.481Z,2.10
2023-03-16T13:46:22.578Z,2.27
2023-03-16T13:48:51.553Z,2.10
2023-03-16T13:51:22.891Z,2.07
2023-03-16T13:53:53.704Z,2.00
2023-03-16T13:56:29.520Z,2.13
2023-03-16T13:58:59.877Z,2.40
2023-03-16T14:01:32.878Z,2.23
2023-03-16T14:04:13.805Z,2.20
2023-03-16T14:06:51.785Z,2.40
2023-03-16T14:09:28.879Z,2.40
2023-03-16T14:11:58.411Z,2.50
2023-03-16T14:14:42.247Z,2.53
2023-03-16T14:17:24.228Z,2.60
2023-03-16T14:20:02.274Z,2.13
2023-03-16T14:22:39.218Z,1.73
2023-03-16T14:25:16.666Z,2.33
2023-03-16T14:27:47.036Z,2.60
2023-03-16T14:30:26.131Z,2.47
2023-03-16T14:33:46.222Z,2.33
2023-03-16T14:36:19.725Z,1.87
2023-03-16T14:38:49.191Z,2.27
2023-03-16T14:41:28.258Z,2.20
2023-03-16T14:44:04.448Z,2.40
2023-03-16T14:46:42.982Z,2.33
2023-03-16T14:49:38.848Z,2.90
2023-03-16T14:52:31.756Z,3.53
2023-03-16T14:55:07.282Z,2.40
2023-03-16T14:57:35.461Z,2.03
2023-03-16T15:00:05.636Z,2.10
2023-03-16T15:02:35.270Z,2.43
2023-03-16T15:05:05.773Z,1.73
2023-03-16T15:07:45.593Z,2.50
2023-03-16T15:10:16.497Z,2.10
2023-03-16T15:12:50.662Z,1.87
2023-03-16T15:15:23.992Z,2.03
2023-03-16T15:17:53.729Z,2.47
2023-03-16T15:20:33.512Z,1.70
2023-03-16T15:23:03.383Z,1.93
2023-03-16T15:25:39.514Z,2.37
2023-03-16T15:28:23.845Z,1.77
2023-03-16T15:31:01.007Z,1.90
2023-03-16T15:33:30.718Z,3.00
2023-03-16T15:36:10.359Z,1.90
2023-03-16T15:38:47.250Z,2.00
2023-03-16T15:41:16.360Z,1.77
2023-03-16T15:43:45.971Z,1.60
2023-03-16T15:46:15.104Z,1.43
2023-03-16T15:48:44.692Z,1.77
2023-03-16T15:51:29.333Z,1.70
2023-03-16T15:54:08.260Z,1.93
2023-03-16T15:56:53.763Z,1.83
2023-03-16T15:59:24.578Z,1.10
2023-03-16T16:01:53.035Z,1.40
2023-03-16T16:04:24.491Z,1.80
2023-03-16T16:06:55.434Z,1.40
2023-03-16T16:09:24.352Z,1.30
2023-03-16T16:11:52.360Z,1.47
2023-03-16T16:14:26.882Z,1.40
2023-03-16T16:16:54.925Z,1.63
2023-03-16T16:19:22.791Z,1.50
2023-03-16T16:21:50.535Z,1.63
2023-03-16T16:24:18.604Z,1.17
2023-03-16T16:26:55.399Z,1.90
2023-03-16T16:29:34.074Z,1.47
2023-03-16T16:32:02.101Z,1.27
2023-03-16T16:34:30.301Z,1.17
2023-03-16T16:36:58.565Z,1.23
2023-03-16T16:39:27.526Z,1.30
2023-03-16T16:41:57.168Z,1.53
2023-03-16T16:44:34.023Z,2.30
2023-03-16T16:47:03.906Z,1.90
2023-03-16T16:49:32.551Z,1.53
2023-03-16T16:52:01.794Z,1.47
2023-03-16T16:54:32.490Z,1.67
2023-03-16T16:57:02.148Z,1.40
2023-03-16T16:59:38.310Z,1.30
2023-03-16T17:02:53.683Z,1.70
2023-03-16T17:05:28.381Z,1.10
2023-03-16T17:08:03.550Z,1.40
2023-03-16T17:10:31.620Z,1.10
2023-03-16T17:12:59.455Z,1.50
2023-03-16T17:15:33.396Z,1.50
2023-03-16T17:18:15.612Z,2.00
2023-03-16T17:20:44.646Z,2.40
2023-03-16T17:23:37.424Z,1.33
2023-03-16T17:26:30.153Z,1.90
2023-03-16T17:29:26.020Z,1.50
2023-03-16T17:31:54.338Z,1.43
2023-03-16T17:34:28.025Z,1.90
2023-03-16T17:36:56.937Z,1.50
2023-03-16T17:39:31.189Z,1.87
2023-03-16T17:42:11.160Z,1.63
2023-03-16T17:44:46.040Z,1.63
2023-03-16T17:47:23.466Z,1.90
2023-03-16T17:49:52.978Z,1.83
2023-03-16T17:52:29.337Z,1.70
2023-03-16T17:54:57.381Z,1.60
2023-03-16T17:57:34.305Z,2.00
2023-03-16T18:00:36.410Z,2.13
2023-03-16T18:03:17.526Z,2.20
2023-03-16T18:05:46.726Z,2.27
2023-03-16T18:08:30.544Z,2.17
2023-03-16T18:11:06.928Z,2.07
2023-03-16T18:13:40.795Z,2.33
2023-03-16T18:16:18.041Z,2.10
2023-03-16T18:18:47.066Z,2.47
2023-03-16T18:21:24.801Z,2.33
2023-03-16T18:23:54.980Z,2.37
2023-03-16T18:26:27.712Z,2.67
2023-03-16T18:28:56.565Z,2.23
2023-03-16T18:31:28.567Z,2.30
2023-03-16T18:34:02.809Z,2.10
2023-03-16T18:36:37.895Z,2.40
2023-03-16T18:39:20.496Z,2.53
2023-03-16T18:41:48.499Z,2.43
2023-03-16T18:44:24.512Z,2.30
2023-03-16T18:47:03.287Z,2.27
2023-03-16T18:49:37.108Z,2.70
2023-03-16T18:52:35.550Z,2.73
2023-03-16T18:55:03.402Z,2.23
2023-03-16T18:57:32.578Z,2.63
2023-03-16T19:00:00.387Z,2.47
2023-03-16T19:02:39.771Z,2.90
2023-03-16T19:05:32.151Z,2.00
2023-03-16T19:08:00.285Z,2.70
2023-03-16T19:10:56.554Z,2.10
2023-03-16T19:13:26.597Z,2.30
2023-03-16T19:15:58.069Z,2.40
2023-03-16T19:18:26.412Z,2.20
2023-03-16T19:20:57.028Z,2.13
2023-03-16T19:23:36.511Z,2.30
2023-03-16T19:26:04.914Z,2.70
2023-03-16T19:28:39.929Z,2.43
2023-03-16T19:31:31.992Z,2.07
2023-03-16T19:34:00.322Z,2.33
2023-03-16T19:36:34.088Z,2.30
2023-03-16T19:39:03.210Z,2.93
2023-03-16T19:41:38.097Z,2.10
2023-03-16T19:44:27.498Z,1.80
2023-03-16T19:46:56.281Z,1.93
2023-03-16T19:49:27.612Z,2.33
2023-03-16T19:51:57.102Z,1.80
2023-03-16T19:54:35.290Z,1.90
2023-03-16T19:57:17.016Z,1.90
2023-03-16T19:59:57.585Z,2.50
2023-03-16T20:02:38.283Z,2.40
2023-03-16T20:05:08.437Z,2.27
2023-03-16T20:07:38.367Z,2.10
2023-03-16T20:10:08.219Z,2.00
2023-03-16T20:12:42.041Z,2.37
2023-03-16T20:15:24.390Z,2.07
2023-03-16T20:17:52.816Z,2.30
2023-03-16T20:20:28.705Z,2.17
2023-03-16T20:22:59.941Z,2.47
2023-03-16T20:25:34.716Z,2.10
2023-03-16T20:28:05.384Z,2.30
2023-03-16T20:30:34.441Z,2.40
2023-03-16T20:33:03.930Z,2.30
2023-03-16T20:35:32.575Z,2.47
2023-03-16T20:38:00.571Z,2.80
2023-03-16T20:40:28.504Z,2.30
2023-03-16T20:42:56.997Z,7.73
2023-03-16T20:45:30.623Z,2.43
2023-03-16T20:47:58.884Z,2.90
2023-03-16T20:50:31.605Z,4.03
2023-03-16T20:52:59.589Z,3.03
2023-03-16T20:55:29.421Z,3.37
2023-03-16T20:57:57.739Z,2.90
2023-03-16T21:00:37.502Z,2.57
2023-03-16T21:03:29.329Z,2.83
2023-03-16T21:06:00.046Z,2.97
2023-03-16T21:08:31.374Z,2.57
2023-03-16T21:11:00.499Z,2.30
2023-03-16T21:13:34.073Z,2.40
2023-03-16T21:16:04.499Z,2.20
2023-03-16T21:18:33.173Z,3.40
2023-03-16T21:21:02.140Z,2.23
2023-03-16T21:23:30.472Z,2.50
2023-03-16T21:26:04.005Z,2.27
2023-03-16T21:28:36.805Z,2.47
2023-03-16T21:31:06.859Z,2.90
2023-03-16T21:33:42.065Z,2.40
2023-03-16T21:36:24.027Z,2.77
2023-03-16T21:38:53.232Z,2.90
2023-03-16T21:41:22.089Z,2.63
2023-03-16T21:43:50.523Z,2.60
2023-03-16T21:46:24.281Z,2.33
2023-03-16T21:48:56.142Z,2.50
2023-03-16T21:51:31.521Z,2.43
2023-03-16T21:54:00.271Z,2.27
2023-03-16T21:56:29.212Z,2.50
2023-03-16T21:58:57.483Z,2.40
2023-03-16T22:01:39.395Z,3.70
2023-03-16T22:04:18.732Z,2.53
2023-03-16T22:06:46.674Z,2.70
2023-03-16T22:09:25.112Z,2.07
2023-03-16T22:11:53.134Z,2.20
2023-03-16T22:14:20.986Z,2.10
2023-03-16T22:16:50.552Z,2.40
2023-03-16T22:19:18.537Z,2.13
2023-03-16T22:21:47.899Z,2.13
2023-03-16T22:24:30.240Z,2.50
2023-03-16T22:26:58.263Z,2.20
2023-03-16T22:29:36.771Z,2.17
2023-03-16T22:32:16.815Z,2.00
2023-03-16T22:34:56.209Z,2.30
2023-03-16T22:37:29.226Z,2.17
2023-03-16T22:39:58.717Z,2.20
2023-03-16T22:42:39.622Z,2.30
2023-03-16T22:45:29.273Z,2.33
2023-03-16T22:48:02.679Z,2.57
2023-03-16T22:50:35.964Z,2.00
2023-03-16T22:53:09.099Z,2.30
2023-03-16T22:55:40.973Z,2.10
2023-03-16T22:58:38.735Z,1.90
2023-03-16T23:01:29.100Z,2.10
2023-03-16T23:03:57.008Z,2.80
2023-03-16T23:06:31.665Z,2.00
2023-03-16T23:08:59.801Z,1.70
2023-03-16T23:11:37.235Z,2.40
2023-03-16T23:14:25.936Z,2.10
2023-03-16T23:16:54.457Z,2.10
2023-03-16T23:19:35.065Z,2.30
2023-03-16T23:22:07.422Z,2.30
2023-03-16T23:24:36.968Z,2.27
2023-03-16T23:27:18.371Z,2.30
2023-03-16T23:29:46.803Z,2.03
2023-03-16T23:32:17.756Z,2.20
2023-03-16T23:34:46.127Z,1.93
2023-03-16T23:37:13.783Z,2.20
2023-03-16T23:39:42.454Z,2.23
2023-03-16T23:42:10.459Z,3.00
2023-03-16T23:44:38.361Z,2.00
2023-03-16T23:47:07.194Z,2.30
2023-03-16T23:49:41.408Z,2.03
2023-03-16T23:52:13.564Z,1.60
2023-03-16T23:54:42.154Z,1.77
2023-03-16T23:57:10.390Z,2.13
2023-03-16T23:59:38.491Z,2.10
